Time;durP1;ratioP1;P1;durP2;ratioP2;P2;SDS_P1;SDS_P2;PMS_P1;PMS_P2;Temp;Humidity;BMP_temperature;BMP_pressure;BME280_temperature;BME280_humidity;BME280_pressure;Samples;Min_cycle;Max_cycle;Signal;HPM_P1;HPM_P2
2022/12/21 00:01:13;;;;;;;35.37;19.63;;;;;;;5.03;58.10;95596.72;5049699;28;20246;-45
2022/12/21 00:03:40;;;;;;;30.20;19.17;;;;;;;5.01;58.30;95588.41;5049967;28;20285;-44
2022/12/21 00:06:08;;;;;;;28.63;17.63;;;;;;;5.02;58.29;95592.56;5049085;28;20663;-46
2022/12/21 00:08:38;;;;;;;30.90;17.33;;;;;;;5.01;58.19;95597.72;5049503;28;20197;-45
2022/12/21 00:11:06;;;;;;;34.20;18.63;;;;;;;4.99;58.38;95597.78;5049073;28;20198;-45
2022/12/21 00:13:33;;;;;;;32.10;20.30;;;;;;;4.98;58.42;95585.22;5049653;28;20204;-45
2022/12/21 00:16:02;;;;;;;32.80;19.23;;;;;;;4.97;58.29;95583.56;5049004;28;20222;-45
2022/12/21 00:18:31;;;;;;;29.23;17.93;;;;;;;4.94;58.29;95594.69;5049348;28;20196;-44
2022/12/21 00:21:03;;;;;;;28.53;17.00;;;;;;;4.93;58.44;95597.31;5048870;28;20251;-45
2022/12/21 00:23:30;;;;;;;35.70;17.50;;;;;;;4.94;58.28;95591.34;5049279;28;20280;-45
2022/12/21 00:25:59;;;;;;;27.67;16.77;;;;;;;4.90;58.33;95585.59;5048928;28;20249;-45
2022/12/21 00:28:26;;;;;;;29.17;16.77;;;;;;;4.91;58.24;95589.75;5048967;28;20682;-44
2022/12/21 00:30:53;;;;;;;33.80;18.67;;;;;;;4.86;58.21;95575.72;5048079;28;20648;-46
2022/12/21 00:33:20;;;;;;;30.30;17.80;;;;;;;4.92;58.44;95588.88;5048485;28;20195;-45
2022/12/21 00:35:50;;;;;;;30.97;18.23;;;;;;;4.90;58.46;95590.66;5048332;28;20202;-44
2022/12/21 00:38:17;;;;;;;29.00;17.57;;;;;;;4.90;58.45;95585.59;5048243;28;20639;-44
2022/12/21 00:40:45;;;;;;;33.97;17.53;;;;;;;4.88;58.41;95584.03;5047894;28;20187;-45
2022/12/21 00:43:12;;;;;;;28.47;17.57;;;;;;;4.87;58.46;95580.69;5047698;28;20674;-44
2022/12/21 00:45:39;;;;;;;32.97;16.73;;;;;;;4.88;58.46;95576.44;5048250;28;20632;-43
2022/12/21 00:48:06;;;;;;;32.03;16.90;;;;;;;4.88;58.37;95566.28;5048147;28;20617;-45
2022/12/21 00:50:34;;;;;;;29.47;17.30;;;;;;;4.87;58.38;95567.19;5048062;28;20195;-44
2022/12/21 00:53:02;;;;;;;27.73;16.90;;;;;;;4.86;58.44;95563.03;5047875;28;20282;-44
2022/12/21 00:55:29;;;;;;;31.13;17.57;;;;;;;4.84;58.54;95554.72;5047726;28;20202;-47
2022/12/21 00:57:55;;;;;;;30.20;17.87;;;;;;;4.85;58.45;95553.81;5047904;28;20593;-45
2022/12/21 01:00:22;;;;;;;28.37;17.37;;;;;;;4.85;58.39;95553.81;5048055;28;20712;-45
2022/12/21 01:02:49;;;;;;;29.07;17.03;;;;;;;4.83;58.52;95541.19;5047249;28;20235;-45
2022/12/21 01:05:16;;;;;;;26.40;17.60;;;;;;;4.83;58.62;95540.38;5047574;28;20229;-46
2022/12/21 01:07:43;;;;;;;28.57;16.80;;;;;;;4.67;58.82;95515.06;5047737;28;20183;-46
2022/12/21 01:10:12;;;;;;;27.33;17.30;;;;;;;4.81;58.53;95545.56;5047552;28;20245;-45
2022/12/21 01:12:39;;;;;;;27.80;16.67;;;;;;;4.80;58.55;95548.19;5047862;28;20206;-47
2022/12/21 01:15:06;;;;;;;28.90;17.00;;;;;;;4.81;58.61;95549.81;5047897;28;20272;-44
2022/12/21 01:17:33;;;;;;;27.67;16.77;;;;;;;4.78;58.66;95548.25;5047644;28;20508;-45
2022/12/21 01:20:01;;;;;;;26.43;16.77;;;;;;;4.80;58.64;95543.09;5047400;28;20222;-46
2022/12/21 01:22:27;;;;;;;28.03;16.53;;;;;;;4.75;58.73;95538.28;5047767;28;20222;-46
2022/12/21 01:24:54;;;;;;;28.00;16.70;;;;;;;4.74;58.65;95542.50;5050599;28;20194;-45
2022/12/21 01:27:22;;;;;;;28.43;17.13;;;;;;;4.75;58.61;95539.09;5051297;28;20857;-44
2022/12/21 01:29:50;;;;;;;29.07;16.13;;;;;;;4.72;58.56;95540.97;5011521;28;1145911;-42
2022/12/21 01:32:16;;;;;;;31.87;16.40;;;;;;;4.72;58.54;95538.44;5052626;28;20245;-43
2022/12/21 01:34:43;;;;;;;26.27;16.03;;;;;;;4.74;58.70;95539.16;5052228;28;20202;-43
2022/12/21 01:37:10;;;;;;;26.70;17.00;;;;;;;4.62;58.78;95517.84;5052407;28;20674;-45
2022/12/21 01:39:37;;;;;;;27.33;16.60;;;;;;;4.71;58.66;95531.75;5052084;28;20868;-42
2022/12/21 01:42:04;;;;;;;29.53;17.13;;;;;;;4.70;58.64;95528.38;5052348;28;20202;-44
2022/12/21 01:44:59;;;;;;;30.43;16.57;;;;;;;4.67;58.69;95528.56;5051841;28;20208;-44
2022/12/21 01:47:31;;;;;;;28.50;16.17;;;;;;;4.70;58.71;95525.84;5052305;28;20274;-45
2022/12/21 01:50:02;;;;;;;27.83;15.57;;;;;;;4.69;58.63;95523.41;5052268;28;20736;-46
2022/12/21 01:52:30;;;;;;;27.83;15.20;;;;;;;4.68;58.65;95519.22;5051916;28;20222;-44
2022/12/21 01:55:01;;;;;;;29.13;16.07;;;;;;;4.68;58.75;95509.09;5051939;28;20202;-45
2022/12/21 01:57:32;;;;;;;26.73;15.70;;;;;;;4.67;58.77;95510.00;5052439;28;20183;-46
2022/12/21 02:00:03;;;;;;;26.17;16.30;;;;;;;4.64;58.76;95498.31;5052150;28;20261;-45
2022/12/21 02:02:34;;;;;;;22.97;14.77;;;;;;;4.65;58.81;95506.72;5051930;28;20280;-44
2022/12/21 02:05:10;;;;;;;25.67;14.73;;;;;;;4.65;58.78;95505.00;5051587;28;20187;-44
2022/12/21 02:07:38;;;;;;;24.90;14.90;;;;;;;4.64;58.76;95500.84;5036402;28;20195;-44
2022/12/21 02:10:07;;;;;;;23.73;14.73;;;;;;;4.65;58.83;95501.66;5051506;28;20237;-43
2022/12/21 02:12:35;;;;;;;25.73;15.30;;;;;;;4.64;58.88;95505.91;5051783;28;20207;-44
2022/12/21 02:15:04;;;;;;;25.73;15.20;;;;;;;4.64;59.06;95502.56;5051947;28;20198;-44
2022/12/21 02:17:42;;;;;;;24.17;14.50;;;;;;;4.64;58.82;95503.38;5051960;28;20196;-44
2022/12/21 02:20:33;;;;;;;27.73;15.17;;;;;;;4.63;58.87;95503.47;5051420;28;20202;-44
2022/12/21 02:23:25;;;;;;;22.47;14.10;;;;;;;4.57;58.98;95488.56;5051487;28;20309;-43
2022/12/21 02:26:17;;;;;;;22.87;13.83;;;;;;;4.42;59.06;95463.19;5051598;28;20179;-43
2022/12/21 02:29:05;;;;;;;24.33;15.30;;;;;;;4.59;58.95;95494.41;5051348;28;20230;-43
2022/12/21 02:31:44;;;;;;;24.23;13.77;;;;;;;4.58;58.93;95487.66;5051334;28;20191;-44
2022/12/21 02:34:23;;;;;;;24.10;14.43;;;;;;;4.45;58.95;95483.28;5051464;28;20183;-44
2022/12/21 02:37:00;;;;;;;23.47;14.17;;;;;;;4.57;59.06;95491.91;5051016;28;20199;-45
2022/12/21 02:39:33;;;;;;;23.67;14.30;;;;;;;4.57;58.97;95499.53;5051554;28;20194;-45
2022/12/21 02:42:08;;;;;;;26.30;15.33;;;;;;;4.57;58.91;95488.56;5051442;28;20678;-45
2022/12/21 02:44:43;;;;;;;24.13;14.53;;;;;;;4.56;58.99;95492.00;5051179;28;20736;-44
2022/12/21 02:47:15;;;;;;;24.70;14.50;;;;;;;4.54;58.92;95492.09;5051540;28;20199;-44
2022/12/21 02:49:48;;;;;;;27.20;15.10;;;;;;;4.54;59.03;95489.56;5051571;28;20190;-52
2022/12/21 02:52:20;;;;;;;24.00;14.80;;;;;;;4.54;58.69;95487.03;5050930;28;20193;-44
2022/12/21 02:54:47;;;;;;;25.67;14.53;;;;;;;4.54;59.10;95484.50;5051293;28;20204;-43
2022/12/21 02:57:14;;;;;;;18.87;13.53;;;;;;;4.52;58.94;95483.75;5051072;28;20241;-46
2022/12/21 02:59:49;;;;;;;23.07;13.47;;;;;;;4.52;59.04;95483.75;5051303;28;20187;-44
2022/12/21 03:02:36;;;;;;;25.43;14.23;;;;;;;4.50;58.99;95481.31;5050740;28;20187;-44
2022/12/21 03:05:19;;;;;;;24.70;14.43;;;;;;;4.51;59.07;95477.06;5051148;28;20237;-44
2022/12/21 03:08:06;;;;;;;21.27;13.00;;;;;;;4.42;59.26;95457.28;5050446;28;20198;-45
2022/12/21 03:10:45;;;;;;;20.13;13.63;;;;;;;4.44;59.26;95466.44;5050770;28;20256;-43
2022/12/21 03:13:22;;;;;;;23.73;13.63;;;;;;;4.47;59.28;95462.94;5050582;28;20190;-44
2022/12/21 03:15:57;;;;;;;20.63;13.67;;;;;;;4.47;59.26;95468.00;5050684;28;20201;-44
2022/12/21 03:18:34;;;;;;;22.37;14.40;;;;;;;4.46;59.25;95459.59;5051064;28;20188;-45
2022/12/21 03:21:06;;;;;;;20.40;13.43;;;;;;;4.38;59.13;95453.28;5050665;28;20198;-45
2022/12/21 03:23:37;;;;;;;22.63;14.30;;;;;;;4.36;59.17;95450.84;5050627;28;20301;-44
2022/12/21 03:26:09;;;;;;;22.60;13.93;;;;;;;4.45;59.18;95463.03;5050732;28;20187;-45
2022/12/21 03:28:39;;;;;;;22.47;13.73;;;;;;;4.24;59.39;95427.00;5050323;28;20285;-44
2022/12/21 03:31:11;;;;;;;21.87;14.00;;;;;;;4.44;59.47;95451.22;5050542;28;20205;-44
2022/12/21 03:33:45;;;;;;;19.80;12.70;;;;;;;4.43;59.28;95438.66;5050411;28;20256;-44
2022/12/21 03:36:17;;;;;;;23.63;13.83;;;;;;;4.43;59.16;95436.13;5050398;28;20202;-44
2022/12/21 03:38:50;;;;;;;20.47;12.17;;;;;;;4.42;59.29;95435.31;5050452;28;20191;-45
2022/12/21 03:41:21;;;;;;;21.73;13.77;;;;;;;4.43;59.31;95428.53;5050492;28;20191;-45
2022/12/21 03:43:51;;;;;;;20.70;12.97;;;;;;;4.43;59.25;95433.59;5049994;28;20229;-46
2022/12/21 03:46:23;;;;;;;23.70;12.73;;;;;;;4.42;59.25;95430.25;5049339;28;20195;-44
2022/12/21 03:48:56;;;;;;;19.77;13.33;;;;;;;4.40;59.25;95419.38;5050431;28;20183;-45
2022/12/21 03:51:27;;;;;;;23.83;13.90;;;;;;;4.40;59.27;95419.38;5049690;28;20274;-45
2022/12/21 03:54:02;;;;;;;20.90;13.10;;;;;;;4.41;59.24;95422.75;5049744;28;20187;-47
2022/12/21 03:56:35;;;;;;;25.07;13.50;;;;;;;4.40;59.38;95421.09;5050124;28;20190;-45
2022/12/21 03:59:02;;;;;;;20.03;12.57;;;;;;;4.38;59.31;95410.25;5049724;28;20655;-45
2022/12/21 04:01:37;;;;;;;21.13;12.50;;;;;;;4.32;59.34;95402.97;5049618;28;20194;-44
2022/12/21 04:04:15;;;;;;;21.30;13.43;;;;;;;4.38;59.37;95413.59;5049107;28;20230;-44
2022/12/21 04:06:45;;;;;;;20.43;12.37;;;;;;;4.37;59.48;95419.56;5049641;28;20194;-48
2022/12/21 04:09:12;;;;;;;20.03;12.73;;;;;;;4.36;59.36;95412.88;5049877;28;20202;-45
2022/12/21 04:14:24;;;;;;;20.83;13.07;;;;;;;4.23;59.50;95395.00;5049658;28;20182;-45
2022/12/21 04:16:50;;;;;;;23.47;12.87;;;;;;;4.34;59.31;95407.06;5048681;28;20313;-45
2022/12/21 04:22:03;;;;;;;19.60;12.70;;;;;;;4.34;59.47;95406.25;5049244;28;20317;-44
2022/12/21 04:29:58;;;;;;;24.03;13.33;;;;;;;4.32;59.41;95397.91;5049223;28;20192;-44
2022/12/21 04:32:25;;;;;;;22.30;13.33;;;;;;;4.31;59.44;95396.28;5048665;28;20194;-44
2022/12/21 04:34:53;;;;;;;21.37;12.63;;;;;;;4.31;59.56;95391.22;5048998;28;20198;-45
2022/12/21 04:37:31;;;;;;;19.10;13.23;;;;;;;4.31;59.61;95393.75;5049003;28;20221;-44
2022/12/21 04:39:58;;;;;;;18.50;12.43;;;;;;;4.31;59.47;95391.22;5048914;28;20183;-44
2022/12/21 04:42:25;;;;;;;20.47;13.00;;;;;;;4.30;59.48;95387.06;5048601;28;20857;-44
2022/12/21 04:44:52;;;;;;;20.53;12.50;;;;;;;4.26;59.37;95379.63;5048861;28;20227;-46
2022/12/21 04:47:19;;;;;;;19.73;12.33;;;;;;;4.30;59.29;95382.81;5048593;28;20789;-44
2022/12/21 04:49:45;;;;;;;22.93;13.03;;;;;;;4.26;59.20;95381.34;5048914;28;20198;-45
2022/12/21 04:52:14;;;;;;;19.93;12.60;;;;;;;4.30;59.46;95397.19;5049003;28;20190;-44
2022/12/21 04:54:40;;;;;;;21.97;13.87;;;;;;;4.28;59.41;95387.16;5048914;28;20187;-44
2022/12/21 04:57:07;;;;;;;22.00;13.37;;;;;;;4.28;59.49;95390.50;5048635;28;20191;-43
2022/12/21 04:59:34;;;;;;;22.97;12.80;;;;;;;4.27;59.56;95391.41;5048663;28;20206;-44
2022/12/21 05:02:01;;;;;;;21.00;12.73;;;;;;;4.28;59.27;95384.63;5048866;28;20285;-47
2022/12/21 05:04:27;;;;;;;19.33;12.57;;;;;;;4.26;59.38;95384.69;5048348;28;20244;-45
2022/12/21 05:06:55;;;;;;;22.53;12.70;;;;;;;4.26;59.47;95386.41;5049285;28;20194;-45
2022/12/21 05:09:25;;;;;;;20.27;12.53;;;;;;;4.06;59.47;95364.69;5048827;28;20195;-44
2022/12/21 05:11:52;;;;;;;22.33;13.77;;;;;;;4.23;59.55;95387.41;5048903;28;20237;-44
2022/12/21 05:14:19;;;;;;;20.33;12.33;;;;;;;4.23;59.51;95400.06;5048492;28;20256;-43
2022/12/21 05:16:46;;;;;;;19.47;11.13;;;;;;;4.22;59.44;95395.88;5048359;28;20231;-43
2022/12/21 05:19:13;;;;;;;21.63;13.30;;;;;;;4.22;59.53;95392.53;5048542;28;20195;-45
2022/12/21 05:21:40;;;;;;;22.60;12.30;;;;;;;4.20;59.39;95390.09;5048735;28;20198;-45
2022/12/21 05:24:07;;;;;;;21.87;13.10;;;;;;;4.17;59.37;95390.22;5048125;28;20222;-44
2022/12/21 05:26:36;;;;;;;22.93;13.07;;;;;;;4.20;59.50;95379.13;5047961;28;20195;-45
2022/12/21 05:29:03;;;;;;;21.50;13.63;;;;;;;4.21;59.39;95388.38;5048385;28;20234;-44
2022/12/21 05:31:30;;;;;;;22.63;13.43;;;;;;;4.20;59.41;95385.03;5048259;28;20214;-44
2022/12/21 05:33:57;;;;;;;23.23;13.83;;;;;;;4.20;59.39;95385.03;5048676;28;20691;-45
2022/12/21 05:36:25;;;;;;;24.83;14.33;;;;;;;4.13;59.28;95380.34;5049031;28;20194;-45
2022/12/21 05:38:52;;;;;;;23.87;14.47;;;;;;;3.82;59.42;95326.31;5048282;28;20290;-45
2022/12/21 05:41:19;;;;;;;24.03;15.13;;;;;;;4.12;59.58;95368.59;5029145;28;20199;-45
2022/12/21 05:43:47;;;;;;;23.63;13.70;;;;;;;4.19;59.60;95380.03;5028662;28;20317;-45
2022/12/21 05:46:14;;;;;;;22.07;13.77;;;;;;;4.20;59.50;95389.28;5028730;28;20188;-44
2022/12/21 05:48:41;;;;;;;25.50;15.03;;;;;;;4.19;59.51;95382.59;5030434;28;20196;-44
2022/12/21 05:51:09;;;;;;;25.70;14.50;;;;;;;4.20;59.50;95382.50;5048699;28;20221;-44
2022/12/21 05:53:37;;;;;;;25.37;15.30;;;;;;;4.21;59.58;95384.13;5049146;28;20274;-44
2022/12/21 05:56:05;;;;;;;21.43;13.93;;;;;;;3.98;59.72;95344.84;5048387;28;20214;-45
2022/12/21 05:58:32;;;;;;;30.23;15.10;;;;;;;4.18;59.53;95374.13;5048779;28;20246;-45
2022/12/21 06:01:02;;;;;;;23.93;14.53;;;;;;;4.24;59.62;95383.97;5048441;28;20196;-44
2022/12/21 06:03:29;;;;;;;27.07;15.00;;;;;;;4.26;59.53;95376.28;5047581;28;20199;-47
2022/12/21 06:06:01;;;;;;;26.30;15.77;;;;;;;4.27;59.60;95376.22;5048457;28;20297;-46
2022/12/21 06:08:30;;;;;;;30.73;17.67;;;;;;;4.29;59.50;95373.59;5048910;28;20252;-45
2022/12/21 06:10:57;;;;;;;27.93;16.40;;;;;;;4.32;59.63;95372.59;5052111;28;20626;-44
2022/12/21 06:13:23;;;;;;;32.20;17.13;;;;;;;4.35;59.55;95375.75;5052344;28;20202;-45
2022/12/21 06:15:50;;;;;;;24.83;15.83;;;;;;;4.39;59.48;95374.69;5051924;28;20576;-45
2022/12/21 06:18:18;;;;;;;27.97;17.63;;;;;;;4.44;59.43;95371.91;5052231;28;20214;-44
2022/12/21 06:20:52;;;;;;;27.73;17.37;;;;;;;4.46;59.33;95365.06;5057907;28;20244;-42
2022/12/21 06:23:19;;;;;;;26.70;17.03;;;;;;;4.57;59.16;95380.47;5052353;28;20198;-42
2022/12/21 06:25:46;;;;;;;34.87;17.20;;;;;;;4.75;59.47;95366.81;5051840;28;20340;-44
2022/12/21 06:28:13;;;;;;;26.37;16.37;;;;;;;5.06;60.78;95369.34;5048403;28;20223;-45
2022/12/21 06:30:41;;;;;;;27.73;16.43;;;;;;;5.35;62.39;95370.97;5050251;28;20195;-44
2022/12/21 06:33:08;;;;;;;23.30;15.30;;;;;;;5.67;62.88;95373.38;5050262;28;20240;-43
2022/12/21 06:35:36;;;;;;;31.13;16.10;;;;;;;6.00;62.76;95363.75;5050635;28;20202;-44
2022/12/21 06:38:03;;;;;;;23.97;15.50;;;;;;;6.28;62.52;95362.88;5051269;28;20206;-46
2022/12/21 06:40:30;;;;;;;25.07;15.43;;;;;;;6.67;62.26;95370.63;5051039;28;20187;-44
2022/12/21 06:42:57;;;;;;;26.50;15.33;;;;;;;7.06;62.14;95374.06;5050359;28;20570;-44
2022/12/21 06:45:24;;;;;;;25.53;16.23;;;;;;;7.36;61.95;95359.34;5050546;28;20237;-45
2022/12/21 06:47:53;;;;;;;25.67;16.67;;;;;;;7.85;61.98;95367.97;5050130;28;20217;-44
2022/12/21 06:50:20;;;;;;;28.90;16.33;;;;;;;8.13;61.72;95344.78;5050683;28;20682;-44
2022/12/21 06:52:49;;;;;;;30.13;18.37;;;;;;;8.76;60.86;95378.59;5050501;28;20195;-45
2022/12/21 06:55:16;;;;;;;32.17;16.83;;;;;;;9.16;60.14;95380.84;5051059;28;20202;-44
2022/12/21 06:57:43;;;;;;;23.83;15.97;;;;;;;9.61;59.54;95375.81;5050273;28;20195;-44
2022/12/21 07:00:11;;;;;;;28.40;17.23;;;;;;;10.03;58.66;95379.41;5050507;28;20191;-43
2022/12/21 07:02:38;;;;;;;26.87;16.20;;;;;;;10.46;58.34;95384.59;5049907;28;20297;-44
2022/12/21 07:05:05;;;;;;;29.47;16.63;;;;;;;10.89;57.36;95382.97;5050526;28;20340;-43
2022/12/21 07:07:32;;;;;;;29.93;17.77;;;;;;;11.29;56.81;95390.81;5049825;28;20195;-44
2022/12/21 07:10:00;;;;;;;24.63;16.77;;;;;;;11.68;56.16;95399.53;5050462;28;20194;-44
2022/12/21 07:12:27;;;;;;;35.60;18.03;;;;;;;12.09;55.32;95397.03;5050113;28;20195;-44
2022/12/21 07:14:54;;;;;;;28.47;18.37;;;;;;;12.39;54.62;95397.00;5050027;28;20194;-44
2022/12/21 07:17:20;;;;;;;30.03;18.13;;;;;;;12.67;53.78;95402.31;5049583;28;20206;-43
2022/12/21 07:19:47;;;;;;;29.53;19.23;;;;;;;12.87;53.09;95396.28;5049424;28;20552;-43
2022/12/21 07:22:14;;;;;;;31.93;19.57;;;;;;;13.00;52.97;95399.38;5049294;28;20195;-44
2022/12/21 07:24:41;;;;;;;29.70;18.30;;;;;;;13.10;52.44;95385.72;5049428;28;20332;-45
2022/12/21 07:27:09;;;;;;;31.27;19.20;;;;;;;13.18;51.92;95398.72;5049503;28;20207;-43
2022/12/21 07:29:36;;;;;;;26.73;19.03;;;;;;;13.24;51.70;95393.03;5049307;28;20223;-44
2022/12/21 07:32:03;;;;;;;30.33;20.80;;;;;;;13.33;51.49;95383.69;5049428;28;20202;-43
2022/12/21 07:34:30;;;;;;;35.77;21.20;;;;;;;13.43;51.10;95385.31;5049608;28;20195;-43
2022/12/21 07:36:56;;;;;;;31.20;20.80;;;;;;;13.50;50.86;95394.09;5047935;28;20187;-43
2022/12/21 07:39:23;;;;;;;29.27;20.30;;;;;;;13.53;50.96;95391.25;5049629;28;20241;-42
2022/12/21 07:41:50;;;;;;;30.10;21.33;;;;;;;13.48;51.04;95387.47;5049536;28;20560;-44
2022/12/21 07:44:18;;;;;;;31.30;20.97;;;;;;;13.34;51.00;95372.47;5049416;28;20207;-44
2022/12/21 07:46:45;;;;;;;34.07;22.80;;;;;;;13.20;51.24;95383.94;5049713;28;20198;-43
2022/12/21 07:49:11;;;;;;;35.30;22.57;;;;;;;13.04;50.97;95377.63;5049312;28;20195;-43
2022/12/21 07:51:38;;;;;;;31.50;21.43;;;;;;;12.87;51.12;95372.38;5046864;28;20191;-44
2022/12/21 07:54:05;;;;;;;34.70;21.33;;;;;;;12.72;51.11;95372.75;5049743;28;20202;-45
2022/12/21 07:56:32;;;;;;;37.13;23.63;;;;;;;12.62;50.83;95386.53;5046494;28;20580;-43
2022/12/21 07:58:59;;;;;;;30.90;20.97;;;;;;;12.48;50.64;95387.72;5046475;28;20206;-43
2022/12/21 08:01:28;;;;;;;32.93;22.33;;;;;;;12.38;50.88;95392.81;5048874;28;20623;-43
2022/12/21 08:03:57;;;;;;;36.60;21.00;;;;;;;12.36;50.49;95379.31;5046366;28;20194;-43
2022/12/21 08:06:24;;;;;;;34.47;23.40;;;;;;;12.47;49.96;95381.75;5049394;28;20221;-45
2022/12/21 08:08:51;;;;;;;36.60;23.93;;;;;;;12.52;49.52;95381.34;5049259;28;20211;-42
2022/12/21 08:11:20;;;;;;;36.93;23.57;;;;;;;12.48;49.61;95373.13;5048895;28;20198;-44
2022/12/21 08:13:48;;;;;;;35.87;24.57;;;;;;;12.44;49.63;95379.47;5046636;28;20677;-42
2022/12/21 08:16:17;;;;;;;33.43;24.10;;;;;;;12.40;49.68;95369.59;5049089;28;20575;-42
2022/12/21 08:18:46;;;;;;;39.20;23.93;;;;;;;12.58;49.37;95364.63;5049448;28;20202;-43
2022/12/21 08:21:13;;;;;;;39.20;24.90;;;;;;;12.52;49.18;95342.88;5048882;28;20187;-47
2022/12/21 08:23:40;;;;;;;39.00;25.17;;;;;;;12.62;49.06;95355.72;5048913;28;20191;-44
2022/12/21 08:26:10;;;;;;;32.87;23.20;;;;;;;12.61;49.02;95360.06;5048482;28;20756;-41
2022/12/21 08:28:37;;;;;;;34.93;24.23;;;;;;;12.64;48.90;95348.69;5049003;28;20230;-42
2022/12/21 08:31:06;;;;;;;37.13;23.47;;;;;;;12.73;48.67;95350.44;5048872;28;20198;-43
2022/12/21 08:33:33;;;;;;;37.27;24.73;;;;;;;12.92;48.57;95350.47;5048281;28;20206;-43
2022/12/21 08:36:01;;;;;;;41.77;24.57;;;;;;;13.11;48.00;95346.25;5048801;28;20198;-41
2022/12/21 08:38:28;;;;;;;34.07;23.00;;;;;;;13.27;47.52;95338.84;5048632;28;20275;-43
2022/12/21 08:41:00;;;;;;;36.07;24.13;;;;;;;13.24;47.26;95342.47;5048716;28;20187;-44
2022/12/21 08:43:27;;;;;;;38.80;23.83;;;;;;;13.10;47.50;95334.38;5048347;28;20631;-44
2022/12/21 08:45:54;;;;;;;42.50;25.50;;;;;;;12.88;47.54;95323.44;5048332;28;20241;-43
2022/12/21 08:48:21;;;;;;;34.40;23.43;;;;;;;12.73;47.96;95325.59;5048331;28;20227;-43
2022/12/21 08:50:51;;;;;;;36.17;24.50;;;;;;;12.57;47.89;95322.78;5048107;28;20182;-43
2022/12/21 08:53:19;;;;;;;35.70;24.43;;;;;;;12.43;48.19;95313.69;5047914;28;20187;-42
2022/12/21 08:55:47;;;;;;;35.70;21.70;;;;;;;12.27;48.14;95305.72;5048837;28;20417;-43
2022/12/21 08:58:15;;;;;;;32.13;22.73;;;;;;;12.21;48.64;95312.19;5047377;28;20252;-43
2022/12/21 09:00:42;;;;;;;34.73;23.00;;;;;;;12.11;48.26;95310.56;5048385;28;20205;-43
2022/12/21 09:03:09;;;;;;;35.30;23.17;;;;;;;12.03;48.44;95303.50;5048301;28;20194;-42
2022/12/21 09:05:36;;;;;;;31.53;22.63;;;;;;;11.90;48.53;95300.38;5048103;28;20219;-42
2022/12/21 09:08:03;;;;;;;31.77;22.93;;;;;;;11.89;48.78;95307.25;5048249;28;20209;-42
2022/12/21 09:10:33;;;;;;;35.40;22.57;;;;;;;11.83;48.51;95305.22;5048156;28;20191;-42
2022/12/21 09:13:00;;;;;;;31.70;21.23;;;;;;;11.62;48.70;95281.38;5047911;28;20191;-43
2022/12/21 09:15:27;;;;;;;39.97;22.77;;;;;;;11.70;48.56;95299.47;5048088;28;20199;-45
2022/12/21 09:17:53;;;;;;;35.60;22.67;;;;;;;11.65;48.57;95294.72;5047940;28;20666;-43
2022/12/21 09:20:20;;;;;;;31.73;20.87;;;;;;;11.60;48.58;95289.19;5048011;28;20194;-45
2022/12/21 09:22:47;;;;;;;28.87;19.83;;;;;;;11.54;48.65;95276.91;5047977;28;20256;-43
2022/12/21 09:25:14;;;;;;;28.83;19.47;;;;;;;11.48;48.64;95269.72;5047971;28;20726;-43
2022/12/21 09:27:42;;;;;;;30.33;19.90;;;;;;;11.43;48.75;95267.53;5047990;28;20195;-43
2022/12/21 09:30:10;;;;;;;26.90;19.33;;;;;;;11.39;48.80;95255.13;5048289;28;20191;-42
2022/12/21 09:32:37;;;;;;;31.50;20.13;;;;;;;11.36;48.78;95252.84;5048039;28;20226;-43
2022/12/21 09:35:04;;;;;;;28.67;19.40;;;;;;;11.33;48.84;95246.22;5048057;28;20682;-44
2022/12/21 09:37:31;;;;;;;31.93;20.67;;;;;;;11.29;48.92;95245.66;5048515;28;20191;-43
2022/12/21 09:39:57;;;;;;;30.87;19.13;;;;;;;11.26;48.75;95243.34;5044920;28;20217;-42
2022/12/21 09:42:36;;;;;;;27.87;20.20;;;;;;;11.21;48.51;95237.00;5048311;28;20213;-43
2022/12/21 09:45:22;;;;;;;32.27;19.97;;;;;;;11.21;48.88;95234.44;5050531;28;20219;-42
2022/12/21 09:47:53;;;;;;;29.03;18.80;;;;;;;11.17;48.70;95231.31;5051577;28;20190;-42
2022/12/21 09:50:23;;;;;;;28.57;18.97;;;;;;;11.14;48.81;95233.31;5051259;28;20187;-44
2022/12/21 09:52:55;;;;;;;31.23;19.80;;;;;;;11.12;48.93;95235.22;5051900;28;20191;-42
2022/12/21 09:55:27;;;;;;;28.87;18.60;;;;;;;11.09;48.92;95232.91;5050911;28;20183;-43
2022/12/21 09:57:54;;;;;;;28.97;18.87;;;;;;;11.07;48.82;95227.91;5048758;28;20210;-43
2022/12/21 10:00:24;;;;;;;26.30;19.03;;;;;;;11.07;48.82;95217.69;5048943;28;20572;-43
2022/12/21 10:03:16;;;;;;;32.33;21.00;;;;;;;11.08;48.79;95208.25;5048825;28;20272;-43
2022/12/21 10:06:01;;;;;;;29.87;18.80;;;;;;;11.00;48.87;95203.75;5046383;28;20218;-44
2022/12/21 10:08:53;;;;;;;27.00;19.57;;;;;;;11.08;48.82;95208.25;5048909;28;20289;-44
2022/12/21 10:11:34;;;;;;;28.67;20.40;;;;;;;11.07;48.68;95199.75;5046951;28;20201;-45
2022/12/21 10:14:10;;;;;;;31.27;20.00;;;;;;;11.08;48.88;95182.66;5048377;28;20548;-44
2022/12/21 10:16:46;;;;;;;29.53;20.50;;;;;;;11.09;48.87;95184.25;5048493;28;20650;-46
2022/12/21 10:19:21;;;;;;;32.57;19.97;;;;;;;11.09;48.75;95179.94;5048786;28;20228;-44
2022/12/21 10:21:58;;;;;;;36.43;22.10;;;;;;;10.91;48.73;95146.47;5048023;28;20205;-44
2022/12/21 10:24:29;;;;;;;28.33;20.47;;;;;;;11.12;48.93;95171.22;5047023;28;20190;-43
2022/12/21 10:27:04;;;;;;;30.93;20.43;;;;;;;11.10;48.67;95157.75;5047563;28;20234;-46
2022/12/21 10:29:35;;;;;;;32.60;21.30;;;;;;;11.14;48.57;95146.28;5048185;28;20233;-45
2022/12/21 10:32:04;;;;;;;33.33;20.60;;;;;;;11.17;48.75;95144.28;5048215;28;20199;-42
2022/12/21 10:34:34;;;;;;;32.47;21.57;;;;;;;11.16;48.63;95140.09;5047909;28;20191;-43
2022/12/21 10:37:04;;;;;;;33.50;20.23;;;;;;;11.26;48.50;95148.63;5048589;28;20194;-42
2022/12/21 10:39:31;;;;;;;25.37;19.40;;;;;;;11.29;48.65;95145.00;5048499;28;20190;-44
2022/12/21 10:42:05;;;;;;;37.00;21.17;;;;;;;11.32;48.47;95147.31;5048161;28;20230;-43
2022/12/21 10:44:35;;;;;;;33.13;20.83;;;;;;;11.34;48.59;95142.03;5047683;28;20194;-43
2022/12/21 10:47:12;;;;;;;31.80;21.53;;;;;;;11.40;48.45;95144.06;5047695;28;20223;-43
2022/12/21 10:49:40;;;;;;;29.07;20.87;;;;;;;11.43;48.53;95141.25;5048102;28;20201;-43
2022/12/21 10:52:36;;;;;;;32.87;20.20;;;;;;;11.46;48.42;95138.44;5045688;28;20206;-43
2022/12/21 10:55:03;;;;;;;30.37;20.47;;;;;;;11.49;48.49;95131.31;5047041;28;20195;-43
2022/12/21 10:57:33;;;;;;;29.50;20.23;;;;;;;11.55;48.36;95129.94;5047506;28;20198;-44
2022/12/21 11:00:20;;;;;;;29.03;20.47;;;;;;;11.67;48.32;95128.91;5048169;28;20213;-43
2022/12/21 11:02:50;;;;;;;28.50;20.03;;;;;;;11.73;48.36;95117.28;5047258;28;20195;-45
2022/12/21 11:05:32;;;;;;;29.47;19.13;;;;;;;11.80;48.18;95119.19;5047446;28;20226;-44
2022/12/21 11:08:19;;;;;;;28.83;21.23;;;;;;;11.85;48.22;95115.44;5047502;28;20206;-43
2022/12/21 11:10:48;;;;;;;28.07;19.83;;;;;;;11.87;48.37;95121.22;5047418;28;20198;-44
2022/12/21 11:13:17;;;;;;;28.57;21.33;;;;;;;11.89;48.37;95107.34;5047700;28;20683;-45
2022/12/21 11:15:56;;;;;;;29.67;19.57;;;;;;;11.92;48.39;95106.28;5047311;28;20202;-45
2022/12/21 11:18:36;;;;;;;28.73;19.97;;;;;;;11.91;48.04;95096.97;5045463;28;20194;-44
2022/12/21 11:21:05;;;;;;;30.87;19.77;;;;;;;11.96;48.24;95103.31;5045461;28;20213;-45
2022/12/21 11:23:33;;;;;;;29.80;20.53;;;;;;;11.97;48.29;95092.09;5049146;28;20199;-46
2022/12/21 11:26:00;;;;;;;28.23;19.13;;;;;;;11.99;48.22;95089.41;5049652;28;20227;-43
2022/12/21 11:28:28;;;;;;;25.40;18.80;;;;;;;12.00;48.16;95091.84;5049803;28;20551;-43
2022/12/21 11:31:05;;;;;;;30.80;19.87;;;;;;;12.02;48.20;95089.13;5049037;28;20651;-42
2022/12/21 11:33:34;;;;;;;29.93;20.23;;;;;;;12.00;48.00;95088.44;5047408;28;20202;-44
2022/12/21 11:36:13;;;;;;;30.93;20.50;;;;;;;12.02;48.00;95084.00;5049400;28;20199;-45
2022/12/21 11:38:41;;;;;;;26.97;19.67;;;;;;;12.02;48.03;95079.69;5049763;28;20191;-44
2022/12/21 11:41:24;;;;;;;28.83;19.27;;;;;;;12.03;48.00;95073.59;5046732;28;20675;-43
2022/12/21 11:43:51;;;;;;;30.33;19.53;;;;;;;12.01;47.81;95072.94;5049170;28;20954;-45
2022/12/21 11:46:32;;;;;;;30.17;19.20;;;;;;;12.04;47.96;95064.16;5049273;28;20230;-43